createdAt,value
2018-10-19T00:00:34.819Z,22.86
2018-10-19T00:03:07.062Z,22.85
2018-10-19T00:05:39.200Z,22.83
2018-10-19T00:08:11.343Z,22.84
2018-10-19T00:10:43.304Z,22.82
2018-10-19T00:13:15.420Z,22.86
2018-10-19T00:15:47.345Z,22.85
2018-10-19T00:18:19.177Z,22.82
2018-10-19T00:20:51.031Z,22.81
2018-10-19T00:23:23.094Z,22.78
2018-10-19T00:25:55.097Z,22.78
2018-10-19T00:28:27.304Z,22.81
2018-10-19T00:30:59.253Z,22.82
2018-10-19T00:33:31.397Z,22.80
2018-10-19T00:36:04.025Z,22.83
2018-10-19T00:38:36.176Z,22.88
2018-10-19T00:41:08.304Z,22.88
2018-10-19T00:43:41.087Z,22.90
2018-10-19T00:46:13.079Z,22.93
2018-10-19T00:48:45.141Z,22.88
2018-10-19T00:51:17.146Z,22.90
2018-10-19T00:53:49.374Z,22.92
2018-10-19T00:56:21.445Z,22.95
2018-10-19T00:58:53.745Z,22.85
2018-10-19T01:01:25.749Z,22.78
2018-10-19T01:03:57.913Z,22.77
2018-10-19T01:06:30.418Z,22.98
2018-10-19T01:09:02.712Z,22.98
2018-10-19T01:11:34.762Z,23.04
2018-10-19T01:14:07.107Z,23.01
2018-10-19T01:16:39.187Z,23.01
2018-10-19T01:19:11.242Z,23.03
2018-10-19T01:21:44.262Z,23.18
2018-10-19T01:24:16.383Z,23.33
2018-10-19T01:26:48.434Z,23.43
2018-10-19T01:29:20.473Z,23.41
2018-10-19T01:31:52.609Z,23.47
2018-10-19T01:34:24.765Z,23.52
2018-10-19T01:36:57.517Z,23.58
2018-10-19T01:39:29.531Z,23.73
2018-10-19T01:42:01.147Z,23.74
2018-10-19T01:44:34.075Z,23.79
2018-10-19T01:47:06.286Z,23.78
2018-10-19T01:49:38.488Z,23.79
2018-10-19T01:52:10.500Z,23.86
2018-10-19T01:54:42.641Z,23.86
2018-10-19T01:57:14.707Z,23.97
2018-10-19T01:59:46.862Z,23.99
2018-10-19T02:02:19.048Z,24.10
2018-10-19T02:04:50.943Z,24.23
2018-10-19T02:07:23.181Z,24.36
2018-10-19T02:09:55.509Z,24.33
2018-10-19T02:12:27.681Z,24.39
2018-10-19T02:14:59.787Z,24.48
2018-10-19T02:17:31.860Z,24.46
2018-10-19T02:20:04.115Z,24.57
2018-10-19T02:22:36.286Z,24.67
2018-10-19T02:25:08.447Z,24.74
2018-10-19T02:27:40.459Z,24.87
2018-10-19T02:30:12.754Z,24.93
2018-10-19T02:32:44.670Z,25.04
2018-10-19T02:35:16.890Z,25.24
2018-10-19T02:37:49.305Z,25.17
2018-10-19T02:40:21.402Z,25.25
2018-10-19T02:42:53.208Z,25.14
2018-10-19T02:45:26.547Z,25.30
2018-10-19T02:47:58.559Z,25.42
2018-10-19T02:50:30.456Z,25.64
2018-10-19T02:53:02.663Z,25.64
2018-10-19T02:55:34.493Z,25.66
2018-10-19T02:58:06.377Z,25.66
2018-10-19T03:00:38.504Z,25.76
2018-10-19T03:03:10.601Z,25.70
2018-10-19T03:05:43.050Z,25.83
2018-10-19T03:08:15.543Z,26.13
2018-10-19T03:10:47.594Z,26.16
2018-10-19T03:13:19.584Z,26.23
2018-10-19T03:15:51.678Z,26.04
2018-10-19T03:18:23.632Z,26.21
2018-10-19T03:20:55.868Z,26.27
2018-10-19T03:23:27.953Z,26.44
2018-10-19T03:26:00.145Z,26.50
2018-10-19T03:28:32.298Z,26.52
2018-10-19T03:31:04.850Z,26.90
2018-10-19T03:33:36.947Z,26.97
2018-10-19T03:36:09.028Z,27.23
2018-10-19T03:38:41.606Z,27.01
2018-10-19T03:41:13.591Z,27.08
2018-10-19T03:43:45.611Z,26.99
2018-10-19T03:46:18.784Z,27.39
2018-10-19T03:48:50.893Z,27.54
2018-10-19T03:51:22.994Z,27.61
2018-10-19T03:53:55.071Z,27.66
2018-10-19T03:56:27.087Z,27.73
2018-10-19T03:58:59.279Z,27.97
2018-10-19T04:01:31.292Z,27.99
2018-10-19T04:04:03.572Z,28.23
2018-10-19T04:06:35.905Z,28.34
2018-10-19T04:09:12.955Z,28.71
2018-10-19T04:11:45.035Z,28.33
2018-10-19T04:14:16.842Z,28.61
2018-10-19T04:16:48.970Z,28.86
2018-10-19T04:19:21.244Z,28.95
2018-10-19T04:21:53.193Z,28.78
2018-10-19T04:24:25.301Z,29.05
2018-10-19T04:26:57.738Z,28.79
2018-10-19T04:29:29.919Z,28.80
2018-10-19T04:32:01.972Z,28.94
2018-10-19T04:34:34.144Z,29.35
2018-10-19T04:37:07.337Z,29.29
2018-10-19T04:39:39.990Z,29.25
2018-10-19T04:42:12.789Z,29.37
2018-10-19T04:44:44.976Z,29.24
2018-10-19T04:47:17.474Z,29.31
2018-10-19T04:49:49.504Z,29.42
2018-10-19T05:06:42.437Z,30.25
2018-10-19T06:54:29.367Z,35.37
2018-10-19T06:57:01.791Z,35.56
2018-10-19T06:59:34.060Z,35.20
2018-10-19T07:02:06.453Z,35.13
2018-10-19T07:04:39.755Z,34.84
2018-10-19T07:07:12.825Z,35.26
2018-10-19T07:09:46.144Z,35.44
2018-10-19T07:12:18.681Z,35.32
2018-10-19T07:14:51.511Z,36.16
2018-10-19T07:17:24.297Z,35.56
2018-10-19T07:19:56.425Z,35.93
2018-10-19T07:22:28.326Z,35.92
2018-10-19T07:25:00.680Z,36.31
2018-10-19T07:27:32.622Z,37.17
2018-10-19T07:30:05.057Z,36.55
2018-10-19T07:32:37.106Z,36.49
2018-10-19T07:35:09.668Z,36.79
2018-10-19T07:41:38.384Z,37.06
2018-10-19T07:44:10.381Z,36.94
2018-10-19T07:46:42.611Z,36.85
2018-10-19T07:49:14.730Z,36.71
2018-10-19T07:51:46.804Z,36.85
2018-10-19T07:54:18.964Z,37.04
2018-10-19T07:56:51.827Z,36.84
2018-10-19T07:59:23.600Z,37.24
2018-10-19T08:01:55.849Z,37.05
2018-10-19T08:04:27.687Z,36.38
2018-10-19T08:06:59.869Z,37.29
2018-10-19T08:09:32.399Z,37.97
2018-10-19T08:12:04.619Z,37.65
2018-10-19T08:14:36.671Z,37.83
2018-10-19T08:17:08.914Z,37.11
2018-10-19T08:19:40.709Z,36.85
2018-10-19T08:22:12.837Z,37.01
2018-10-19T08:24:44.996Z,37.22
2018-10-19T08:27:17.295Z,37.05
2018-10-19T08:29:49.377Z,37.66
2018-10-19T08:32:21.268Z,37.29
2018-10-19T08:34:53.148Z,37.35
2018-10-19T08:37:25.560Z,37.84
2018-10-19T08:39:58.270Z,37.82
2018-10-19T08:42:30.251Z,37.91
2018-10-19T08:45:02.168Z,37.58
2018-10-19T08:47:34.032Z,36.91
2018-10-19T08:50:06.051Z,37.52
2018-10-19T08:52:38.185Z,37.88
2018-10-19T08:55:10.138Z,38.19
2018-10-19T08:57:43.171Z,37.75
2018-10-19T09:00:15.265Z,38.34
2018-10-19T09:02:47.418Z,37.98
2018-10-19T09:05:19.527Z,37.91
2018-10-19T09:07:51.682Z,38.15
2018-10-19T09:10:24.741Z,38.41
2018-10-19T09:12:57.289Z,37.83
2018-10-19T09:15:29.501Z,38.22
2018-10-19T09:18:01.437Z,38.19
2018-10-19T09:20:33.585Z,37.78
2018-10-19T09:23:06.000Z,38.23
2018-10-19T09:25:38.036Z,38.09
2018-10-19T09:28:10.001Z,38.14
2018-10-19T09:30:42.194Z,37.78
2018-10-19T09:33:14.431Z,37.89
2018-10-19T09:35:46.519Z,37.44
2018-10-19T09:38:18.745Z,37.37
2018-10-19T09:40:51.131Z,38.03
2018-10-19T09:43:23.636Z,37.68
2018-10-19T09:45:55.650Z,37.87
2018-10-19T09:48:27.733Z,38.01
2018-10-19T09:50:59.731Z,37.95
2018-10-19T09:53:31.629Z,37.70
2018-10-19T09:56:03.865Z,37.97
2018-10-19T09:58:35.860Z,37.93
2018-10-19T10:01:12.552Z,37.67
2018-10-19T10:03:44.723Z,38.16
2018-10-19T10:06:16.467Z,38.04
2018-10-19T10:08:48.663Z,37.42
2018-10-19T10:11:21.461Z,37.92
2018-10-19T10:13:53.581Z,37.47
2018-10-19T10:16:25.424Z,37.80
2018-10-19T10:18:57.353Z,37.83
2018-10-19T10:21:28.961Z,37.52
2018-10-19T10:24:01.244Z,37.84
2018-10-19T10:26:33.209Z,37.73
2018-10-19T10:29:05.483Z,37.36
2018-10-19T10:31:37.633Z,37.19
2018-10-19T10:34:09.557Z,37.18
2018-10-19T10:36:41.603Z,36.82
2018-10-19T10:39:15.074Z,37.09
2018-10-19T10:41:47.971Z,36.84
2018-10-19T10:44:20.139Z,36.67
2018-10-19T10:46:52.311Z,36.44
2018-10-19T10:49:24.287Z,36.32
2018-10-19T10:51:56.080Z,36.09
2018-10-19T10:54:28.188Z,36.06
2018-10-19T10:57:00.155Z,35.86
2018-10-19T10:59:32.455Z,36.00
2018-10-19T11:02:04.173Z,35.92
2018-10-19T11:04:36.272Z,35.71
2018-10-19T11:07:08.169Z,35.65
2018-10-19T11:09:40.433Z,35.49
2018-10-19T11:12:12.840Z,35.41
2018-10-19T11:14:44.798Z,35.33
2018-10-19T11:17:16.536Z,35.02
2018-10-19T11:19:48.628Z,34.92
2018-10-19T11:22:20.739Z,34.50
2018-10-19T11:24:52.939Z,34.48
2018-10-19T11:27:24.968Z,34.39
2018-10-19T11:29:57.056Z,34.25
2018-10-19T11:32:29.341Z,33.93
2018-10-19T11:35:01.456Z,33.63
2018-10-19T11:37:33.613Z,33.15
2018-10-19T11:40:30.976Z,32.81
2018-10-19T11:43:03.888Z,32.40
2018-10-19T11:45:36.854Z,32.32
2018-10-19T11:48:08.655Z,32.23
2018-10-19T11:50:40.847Z,31.96
2018-10-19T11:53:12.817Z,31.87
2018-10-19T11:55:45.014Z,31.82
2018-10-19T11:58:17.039Z,31.69
2018-10-19T12:00:48.975Z,31.52
2018-10-19T12:03:20.814Z,31.38
2018-10-19T12:05:52.758Z,31.09
2018-10-19T12:08:24.727Z,30.88
2018-10-19T12:10:56.729Z,30.84
2018-10-19T12:13:28.838Z,30.67
2018-10-19T12:16:01.154Z,30.52
2018-10-19T12:18:33.377Z,30.42
2018-10-19T12:21:05.669Z,30.39
2018-10-19T12:23:37.664Z,30.35
2018-10-19T12:26:09.388Z,30.27
2018-10-19T12:28:41.288Z,30.16
2018-10-19T12:31:13.507Z,30.11
2018-10-19T12:33:45.783Z,29.97
2018-10-19T12:36:17.634Z,29.85
2018-10-19T12:38:49.573Z,29.84
2018-10-19T12:41:21.652Z,29.79
2018-10-19T12:43:54.005Z,29.75
2018-10-19T12:46:38.432Z,29.65
2018-10-19T12:49:11.013Z,29.57
2018-10-19T12:51:42.971Z,29.52
2018-10-19T12:54:14.742Z,29.54
2018-10-19T12:56:46.711Z,29.52
2018-10-19T12:59:18.503Z,29.48
2018-10-19T13:01:50.628Z,29.40
2018-10-19T13:04:22.690Z,29.32
2018-10-19T13:06:55.370Z,29.07
2018-10-19T13:09:27.235Z,28.91
2018-10-19T13:11:59.329Z,29.03
2018-10-19T13:14:31.803Z,29.08
2018-10-19T13:17:03.778Z,29.05
2018-10-19T13:19:35.636Z,28.97
2018-10-19T13:22:07.794Z,28.94
2018-10-19T13:24:39.943Z,28.96
2018-10-19T13:27:12.151Z,28.85
2018-10-19T13:29:44.142Z,28.80
2018-10-19T13:32:16.284Z,28.81
2018-10-19T13:34:48.284Z,28.79
2018-10-19T13:37:20.251Z,28.71
2018-10-19T13:39:52.231Z,28.63
2018-10-19T13:42:24.245Z,28.57
2018-10-19T13:44:56.393Z,28.55
2018-10-19T13:47:28.612Z,28.49
2018-10-19T13:50:00.737Z,28.50
2018-10-19T13:52:33.521Z,28.40
2018-10-19T13:55:05.426Z,28.33
2018-10-19T13:57:37.534Z,28.21
2018-10-19T14:00:09.372Z,28.16
2018-10-19T14:02:41.296Z,28.07
2018-10-19T14:05:13.392Z,28.13
2018-10-19T14:07:46.584Z,28.16
2018-10-19T14:10:18.403Z,28.12
2018-10-19T14:12:50.708Z,28.10
2018-10-19T14:15:23.105Z,28.08
2018-10-19T14:17:55.023Z,28.03
2018-10-19T14:20:26.841Z,27.94
2018-10-19T14:22:59.003Z,27.90
2018-10-19T14:25:30.776Z,27.85
2018-10-19T14:28:02.828Z,27.82
2018-10-19T14:30:34.727Z,27.80
2018-10-19T14:33:06.810Z,27.78
2018-10-19T14:35:38.727Z,27.80
2018-10-19T14:38:10.873Z,27.88
2018-10-19T14:40:42.950Z,27.90
2018-10-19T14:43:16.050Z,27.92
2018-10-19T14:45:48.566Z,27.81
2018-10-19T14:48:20.597Z,27.71
2018-10-19T14:50:52.613Z,27.57
2018-10-19T14:53:24.577Z,27.51
2018-10-19T14:55:56.554Z,27.46
2018-10-19T14:58:28.782Z,27.43
2018-10-19T15:01:00.851Z,27.34
2018-10-19T15:03:33.108Z,27.29
2018-10-19T15:06:04.895Z,27.23
2018-10-19T15:08:38.210Z,27.17
2018-10-19T15:11:10.273Z,27.15
2018-10-19T15:13:42.480Z,27.15
2018-10-19T15:16:15.918Z,27.09
2018-10-19T15:18:48.331Z,27.09
2018-10-19T15:21:20.583Z,26.96
2018-10-19T15:23:52.857Z,26.93
2018-10-19T15:26:25.114Z,26.90
2018-10-19T15:28:56.949Z,26.96
2018-10-19T15:31:28.974Z,26.92
2018-10-19T15:34:00.930Z,26.97
2018-10-19T15:36:32.953Z,27.02
2018-10-19T15:39:06.036Z,26.99
2018-10-19T15:41:37.878Z,26.95
2018-10-19T15:44:09.999Z,26.95
2018-10-19T15:46:42.506Z,27.22
2018-10-19T15:49:14.750Z,27.37
2018-10-19T15:51:46.671Z,27.22
2018-10-19T15:54:18.614Z,27.20
2018-10-19T15:56:50.782Z,27.05
2018-10-19T15:59:23.276Z,27.04
2018-10-19T16:01:55.239Z,26.94
2018-10-19T16:04:27.333Z,26.83
2018-10-19T16:06:59.120Z,26.81
2018-10-19T16:09:32.021Z,26.75
2018-10-19T16:12:04.208Z,26.68
2018-10-19T16:14:36.172Z,26.56
2018-10-19T16:17:08.614Z,26.45
2018-10-19T16:19:40.834Z,26.38
2018-10-19T16:22:12.822Z,26.36
2018-10-19T16:24:44.682Z,26.37
2018-10-19T16:27:17.020Z,26.38
2018-10-19T16:29:49.099Z,26.36
2018-10-19T16:32:21.282Z,26.36
2018-10-19T16:34:53.315Z,26.34
2018-10-19T16:37:25.654Z,26.33
2018-10-19T16:39:57.989Z,26.22
2018-10-19T16:42:30.154Z,26.15
2018-10-19T16:45:02.218Z,26.04
2018-10-19T16:47:35.032Z,26.05
2018-10-19T16:50:07.374Z,26.08
2018-10-19T16:54:03.917Z,26.11
2018-10-19T16:56:36.024Z,26.14
2018-10-19T16:59:07.994Z,26.23
2018-10-19T17:01:40.155Z,26.30
2018-10-19T17:04:12.761Z,26.45
2018-10-19T17:06:45.500Z,26.55
2018-10-19T17:09:17.687Z,26.46
2018-10-19T17:11:50.006Z,26.39
2018-10-19T17:14:21.896Z,26.30
2018-10-19T17:16:53.957Z,26.25
2018-10-19T17:19:27.930Z,26.28
2018-10-19T17:22:00.214Z,26.37
2018-10-19T17:24:31.781Z,26.40
2018-10-19T17:27:03.847Z,26.45
2018-10-19T17:29:35.865Z,26.36
2018-10-19T17:32:07.989Z,26.12
2018-10-19T17:34:39.643Z,25.92
2018-10-19T17:39:31.542Z,25.70
2018-10-19T17:42:03.454Z,25.64
2018-10-19T17:44:35.459Z,25.57
2018-10-19T17:47:07.712Z,25.52
2018-10-19T17:49:40.349Z,25.46
2018-10-19T17:52:12.021Z,25.42
2018-10-19T17:54:43.916Z,25.33
2018-10-19T17:57:16.065Z,25.33
2018-10-19T17:59:48.025Z,25.24
2018-10-19T18:02:19.890Z,25.34
2018-10-19T18:04:51.831Z,25.62
2018-10-19T18:07:23.882Z,25.73
2018-10-19T18:09:55.961Z,25.65
2018-10-19T18:12:28.127Z,25.58
2018-10-19T18:15:00.254Z,25.78
2018-10-19T18:17:32.014Z,25.60
2018-10-19T18:20:04.602Z,25.52
2018-10-19T18:22:36.813Z,25.34
2018-10-19T18:25:09.153Z,25.17
2018-10-19T18:27:41.022Z,25.17
2018-10-19T18:30:14.054Z,25.06
2018-10-19T18:32:46.462Z,25.07
2018-10-19T18:35:18.448Z,25.00
2018-10-19T18:37:50.473Z,24.93
2018-10-19T18:40:22.254Z,24.85
2018-10-19T18:42:54.105Z,24.85
2018-10-19T18:45:26.079Z,24.78
2018-10-19T18:47:58.143Z,24.83
2018-10-19T18:50:30.711Z,24.89
2018-10-19T18:53:02.801Z,25.07
2018-10-19T18:55:35.148Z,25.11
2018-10-19T18:58:07.003Z,25.23
2018-10-19T19:00:38.874Z,25.18
2018-10-19T19:03:11.207Z,25.15
2018-10-19T19:05:43.458Z,25.11
2018-10-19T19:08:15.637Z,25.09
2018-10-19T19:10:47.694Z,25.00
2018-10-19T19:13:24.326Z,24.86
2018-10-19T19:15:56.532Z,24.71
2018-10-19T19:18:28.193Z,24.69
2018-10-19T19:21:00.965Z,24.74
2018-10-19T19:23:37.280Z,24.69
2018-10-19T19:26:14.670Z,24.73
2018-10-19T19:28:46.811Z,24.79
2018-10-19T19:31:18.901Z,24.77
2018-10-19T19:33:55.422Z,24.73
2018-10-19T19:36:27.140Z,24.73
2018-10-19T19:38:59.096Z,24.74
2018-10-19T19:41:36.001Z,24.74
2018-10-19T19:44:07.869Z,24.69
2018-10-19T19:46:39.726Z,24.69
2018-10-19T19:49:16.332Z,24.73
2018-10-19T19:51:49.088Z,24.74
2018-10-19T19:54:21.129Z,24.71
2018-10-19T19:56:53.144Z,24.84
2018-10-19T19:59:25.060Z,24.94
2018-10-19T20:01:57.305Z,24.78
2018-10-19T20:04:29.651Z,24.47
2018-10-19T20:07:01.947Z,24.33
2018-10-19T20:09:34.776Z,24.31
2018-10-19T20:12:07.264Z,24.28
2018-10-19T20:14:39.501Z,24.25
2018-10-19T20:17:11.814Z,24.27
2018-10-19T20:19:43.839Z,24.24
2018-10-19T20:22:16.332Z,24.21
2018-10-19T20:24:48.342Z,24.20
2018-10-19T20:27:20.384Z,24.17
2018-10-19T20:29:52.493Z,24.20
2018-10-19T20:32:24.473Z,24.24
2018-10-19T20:34:56.705Z,24.17
2018-10-19T20:37:28.957Z,24.17
2018-10-19T20:40:01.063Z,24.22
2018-10-19T20:42:33.051Z,24.39
2018-10-19T20:45:05.369Z,24.67
2018-10-19T20:47:37.457Z,24.82
2018-10-19T20:50:09.793Z,24.80
2018-10-19T20:52:42.539Z,24.79
2018-10-19T20:55:15.635Z,24.75
2018-10-19T20:57:47.692Z,24.44
2018-10-19T21:00:19.758Z,24.34
2018-10-19T21:02:51.664Z,24.31
2018-10-19T21:05:23.432Z,24.40
2018-10-19T21:07:55.615Z,24.47
2018-10-19T21:10:28.061Z,24.53
2018-10-19T21:13:00.265Z,24.56
2018-10-19T21:15:32.236Z,24.62
2018-10-19T21:18:04.376Z,24.65
2018-10-19T21:20:36.396Z,24.56
2018-10-19T21:23:08.748Z,24.57
2018-10-19T21:25:40.752Z,24.60
2018-10-19T21:28:13.088Z,24.60
2018-10-19T21:30:45.166Z,24.56
2018-10-19T21:33:17.402Z,24.50
2018-10-19T21:35:49.120Z,24.51
2018-10-19T21:38:21.115Z,24.42
2018-10-19T21:40:52.967Z,24.47
2018-10-19T21:43:25.109Z,24.45
2018-10-19T21:45:56.906Z,24.40
2018-10-19T21:48:28.981Z,24.36
2018-10-19T21:51:00.982Z,24.38
2018-10-19T21:53:33.460Z,24.30
2018-10-19T21:56:05.485Z,24.23
2018-10-19T21:58:37.773Z,24.24
2018-10-19T22:01:09.843Z,24.17
2018-10-19T22:03:41.978Z,24.16
2018-10-19T22:06:13.966Z,24.00
2018-10-19T22:08:45.913Z,24.01
2018-10-19T22:11:18.353Z,24.07
2018-10-19T22:13:50.558Z,24.12
2018-10-19T22:16:22.853Z,24.08
2018-10-19T22:18:54.999Z,24.02
2018-10-19T22:21:27.305Z,23.91
2018-10-19T22:24:00.038Z,23.89
2018-10-19T22:26:32.219Z,23.96
2018-10-19T22:29:04.340Z,23.95
2018-10-19T22:31:36.507Z,23.86
2018-10-19T22:34:08.442Z,23.74
2018-10-19T22:36:40.421Z,23.63
2018-10-19T22:39:12.712Z,23.50
2018-10-19T22:41:44.762Z,23.62
2018-10-19T22:44:18.095Z,23.61
2018-10-19T22:46:50.196Z,23.74
2018-10-19T22:49:22.138Z,23.69
2018-10-19T22:51:54.254Z,23.49
2018-10-19T22:54:26.764Z,23.49
2018-10-19T22:56:58.805Z,23.37
2018-10-19T22:59:30.679Z,23.40
2018-10-19T23:02:02.552Z,23.33
2018-10-19T23:04:34.704Z,23.45
2018-10-19T23:07:07.173Z,23.38
2018-10-19T23:09:39.468Z,23.37
2018-10-19T23:12:11.741Z,23.27
2018-10-19T23:14:44.386Z,23.34
2018-10-19T23:17:16.614Z,23.25
2018-10-19T23:19:48.723Z,23.10
2018-10-19T23:22:20.802Z,23.11
2018-10-19T23:24:53.322Z,23.03
2018-10-19T23:27:25.286Z,23.04
2018-10-19T23:29:57.451Z,22.98
2018-10-19T23:32:29.152Z,22.98
2018-10-19T23:35:01.514Z,22.94
2018-10-19T23:37:33.637Z,23.24
2018-10-19T23:40:05.985Z,23.29
2018-10-19T23:42:38.104Z,23.28
2018-10-19T23:45:10.591Z,23.24
2018-10-19T23:47:42.578Z,23.29
2018-10-19T23:52:45.203Z,23.27
2018-10-19T23:55:17.678Z,23.14
2018-10-19T23:57:49.707Z,23.08
